createdAt,value
2023-04-11T00:00:29.772Z,21.04
2023-04-11T00:01:29.258Z,21.08
2023-04-11T00:02:29.371Z,21.01
2023-04-11T00:03:30.441Z,20.99
2023-04-11T00:04:29.482Z,20.96
2023-04-11T00:05:29.345Z,21.17
2023-04-11T00:06:29.356Z,21.22
2023-04-11T00:07:29.369Z,21.17
2023-04-11T00:08:29.816Z,21.07
2023-04-11T00:09:29.498Z,20.99
2023-04-11T00:10:29.483Z,21.14
2023-04-11T00:11:29.523Z,21.07
2023-04-11T00:12:29.626Z,21.14
2023-04-11T00:13:29.593Z,21.10
2023-04-11T00:14:29.668Z,21.16
2023-04-11T00:15:29.690Z,21.11
2023-04-11T00:16:29.709Z,21.10
2023-04-11T00:17:29.727Z,21.02
2023-04-11T00:18:29.837Z,21.17
2023-04-11T00:19:29.845Z,21.13
2023-04-11T00:20:29.820Z,21.10
2023-04-11T00:21:29.916Z,21.02
2023-04-11T00:22:29.866Z,21.25
2023-04-11T00:23:29.881Z,21.10
2023-04-11T00:24:29.903Z,21.07
2023-04-11T00:25:30.256Z,21.19
2023-04-11T00:26:29.987Z,21.12
2023-04-11T00:27:30.319Z,21.12
2023-04-11T00:28:30.011Z,21.21
2023-04-11T00:29:30.101Z,21.08
2023-04-11T00:30:30.119Z,21.25
2023-04-11T00:31:30.217Z,21.31
2023-04-11T00:32:30.341Z,21.16
2023-04-11T00:33:30.161Z,21.14
2023-04-11T00:34:30.187Z,21.25
2023-04-11T00:35:30.386Z,21.34
2023-04-11T00:36:30.344Z,21.16
2023-04-11T00:37:30.397Z,21.14
2023-04-11T00:38:30.304Z,21.16
2023-04-11T00:39:30.395Z,21.18
2023-04-11T00:40:30.354Z,21.23
2023-04-11T00:41:30.369Z,21.22
2023-04-11T00:42:31.312Z,21.18
2023-04-11T00:43:30.454Z,21.30
2023-04-11T00:44:30.473Z,21.13
2023-04-11T00:45:30.543Z,21.15
2023-04-11T00:46:30.611Z,21.26
2023-04-11T00:47:30.584Z,21.33
2023-04-11T00:48:30.605Z,21.19
2023-04-11T00:49:30.620Z,21.28
2023-04-11T00:50:30.632Z,21.19
2023-04-11T00:51:30.652Z,21.15
2023-04-11T00:52:30.763Z,21.25
2023-04-11T00:53:30.749Z,21.19
2023-04-11T00:54:33.276Z,21.18
2023-04-11T00:55:30.934Z,21.24
2023-04-11T00:56:30.953Z,21.24
2023-04-11T00:57:31.084Z,21.25
2023-04-11T00:58:31.052Z,21.13
2023-04-11T00:59:31.010Z,21.19
2023-04-11T01:00:31.117Z,21.16
2023-04-11T01:01:31.105Z,21.23
2023-04-11T01:02:31.327Z,21.30
2023-04-11T01:03:31.369Z,21.31
2023-04-11T01:04:31.228Z,21.33
2023-04-11T01:05:31.386Z,21.33
2023-04-11T01:06:31.803Z,21.31
2023-04-11T01:07:31.278Z,21.22
2023-04-11T01:08:31.433Z,21.33
2023-04-11T01:09:31.299Z,21.28
2023-04-11T01:10:31.424Z,21.30
2023-04-11T01:11:31.385Z,21.28
2023-04-11T01:12:31.410Z,21.16
2023-04-11T01:13:31.494Z,21.37
2023-04-11T01:14:31.502Z,21.34
2023-04-11T01:15:31.524Z,21.34
2023-04-11T01:16:31.521Z,21.36
2023-04-11T01:17:31.603Z,21.37
2023-04-11T01:18:31.775Z,21.34
2023-04-11T01:19:31.585Z,21.42
2023-04-11T01:20:31.668Z,21.34
2023-04-11T01:21:31.628Z,21.30
2023-04-11T01:22:31.795Z,21.25
2023-04-11T01:23:31.782Z,21.40
2023-04-11T01:24:31.838Z,21.33
2023-04-11T01:25:31.754Z,21.40
2023-04-11T01:26:31.835Z,21.33
2023-04-11T01:27:32.761Z,21.33
2023-04-11T01:28:31.895Z,21.45
2023-04-11T01:29:31.931Z,21.53
2023-04-11T01:30:31.919Z,21.39
2023-04-11T01:31:32.076Z,21.39
2023-04-11T01:32:32.013Z,21.33
2023-04-11T01:33:32.116Z,21.33
2023-04-11T01:34:32.057Z,21.40
2023-04-11T01:35:32.109Z,21.39
2023-04-11T01:36:32.106Z,21.34
2023-04-11T01:37:32.129Z,21.34
2023-04-11T01:38:32.151Z,21.43
2023-04-11T01:39:32.790Z,21.36
2023-04-11T01:40:32.190Z,21.36
2023-04-11T01:41:32.340Z,21.42
2023-04-11T01:42:32.496Z,21.34
2023-04-11T01:43:32.873Z,21.36
2023-04-11T01:44:32.368Z,21.51
2023-04-11T01:45:33.303Z,21.48
2023-04-11T01:46:32.393Z,21.45
2023-04-11T01:47:32.442Z,21.39
2023-04-11T01:48:32.580Z,21.40
2023-04-11T01:49:32.461Z,21.45
2023-04-11T01:50:32.530Z,21.45
2023-04-11T01:51:32.523Z,21.37
2023-04-11T01:52:32.525Z,21.43
2023-04-11T01:53:32.602Z,21.48
2023-04-11T01:54:32.573Z,21.51
2023-04-11T01:55:32.638Z,21.54
2023-04-11T01:56:33.320Z,21.48
2023-04-11T01:57:32.662Z,21.49
2023-04-11T01:58:32.711Z,21.53
2023-04-11T01:59:32.693Z,21.42
2023-04-11T02:00:32.732Z,21.42
2023-04-11T02:01:32.847Z,21.45
2023-04-11T02:02:32.908Z,21.54
2023-04-11T02:03:33.905Z,21.54
2023-04-11T02:04:32.840Z,21.53
2023-04-11T02:05:32.905Z,21.58
2023-04-11T02:06:32.897Z,21.52
2023-04-11T02:07:32.945Z,21.63
2023-04-11T02:08:33.340Z,21.45
2023-04-11T02:09:33.048Z,21.50
2023-04-11T02:10:33.108Z,21.54
2023-04-11T02:11:33.008Z,21.51
2023-04-11T02:12:33.049Z,21.57
2023-04-11T02:13:33.123Z,21.51
2023-04-11T02:14:33.130Z,21.58
2023-04-11T02:15:33.288Z,21.59
2023-04-11T02:16:33.233Z,21.47
2023-04-11T02:17:33.305Z,21.63
2023-04-11T02:18:33.270Z,21.48
2023-04-11T02:19:33.289Z,21.63
2023-04-11T02:20:33.402Z,21.53
2023-04-11T02:21:33.378Z,21.55
2023-04-11T02:22:33.442Z,21.60
2023-04-11T02:23:33.407Z,21.56
2023-04-11T02:24:33.481Z,21.54
2023-04-11T02:25:33.496Z,21.65
2023-04-11T02:26:33.517Z,21.59
2023-04-11T02:27:33.541Z,21.58
2023-04-11T02:28:33.583Z,21.59
2023-04-11T02:29:33.650Z,21.69
2023-04-11T02:30:33.701Z,21.57
2023-04-11T02:31:33.791Z,21.59
2023-04-11T02:32:33.697Z,21.55
2023-04-11T02:33:33.756Z,21.55
2023-04-11T02:34:34.491Z,21.65
2023-04-11T02:35:33.806Z,21.60
2023-04-11T02:36:34.334Z,21.55
2023-04-11T02:37:33.885Z,21.53
2023-04-11T02:38:33.903Z,21.56
2023-04-11T02:39:33.978Z,21.57
2023-04-11T02:40:33.938Z,21.51
2023-04-11T02:41:34.894Z,21.61
2023-04-11T02:42:33.986Z,21.63
2023-04-11T02:43:34.045Z,21.66
2023-04-11T02:44:34.873Z,21.56
2023-04-11T02:45:34.121Z,21.71
2023-04-11T02:46:34.871Z,21.59
2023-04-11T02:47:34.152Z,21.60
2023-04-11T02:48:34.330Z,21.57
2023-04-11T02:49:34.229Z,21.63
2023-04-11T02:50:34.196Z,21.62
2023-04-11T02:51:34.844Z,21.55
2023-04-11T02:52:34.237Z,21.66
2023-04-11T02:53:34.304Z,21.72
2023-04-11T02:54:34.340Z,21.71
2023-04-11T02:55:34.410Z,21.69
2023-04-11T02:56:34.381Z,21.72
2023-04-11T02:57:34.384Z,21.57
2023-04-11T02:58:34.560Z,21.68
2023-04-11T02:59:34.488Z,21.71
2023-04-11T03:00:34.504Z,21.68
2023-04-11T03:01:34.565Z,21.74
2023-04-11T03:02:34.704Z,21.57
2023-04-11T03:03:35.022Z,21.60
2023-04-11T03:04:34.629Z,21.59
2023-04-11T03:05:34.598Z,21.59
2023-04-11T03:06:34.650Z,21.57
2023-04-11T03:07:34.672Z,21.60
2023-04-11T03:08:34.846Z,21.58
2023-04-11T03:09:34.686Z,21.71
2023-04-11T03:10:34.741Z,21.75
2023-04-11T03:11:34.816Z,21.68
2023-04-11T03:12:34.790Z,21.68
2023-04-11T03:13:34.848Z,21.69
2023-04-11T03:14:34.946Z,21.69
2023-04-11T03:15:34.873Z,21.66
2023-04-11T03:16:34.931Z,21.57
2023-04-11T03:17:34.929Z,21.63
2023-04-11T03:18:34.949Z,21.68
2023-04-11T03:19:34.958Z,21.60
2023-04-11T03:20:35.038Z,21.75
2023-04-11T03:21:35.035Z,21.75
2023-04-11T03:22:35.076Z,21.69
2023-04-11T03:23:35.163Z,21.77
2023-04-11T03:24:35.240Z,21.72
2023-04-11T03:25:35.221Z,21.72
2023-04-11T03:26:35.270Z,21.68
2023-04-11T03:27:35.193Z,21.72
2023-04-11T03:28:35.296Z,21.66
2023-04-11T03:29:35.261Z,21.63
2023-04-11T03:30:35.323Z,21.69
2023-04-11T03:31:35.391Z,21.81
2023-04-11T03:32:35.365Z,21.71
2023-04-11T03:33:35.420Z,21.78
2023-04-11T03:34:35.360Z,21.75
2023-04-11T03:35:35.442Z,21.77
2023-04-11T03:36:35.441Z,21.71
2023-04-11T03:37:35.456Z,21.74
2023-04-11T03:38:35.529Z,21.69
2023-04-11T03:39:35.506Z,21.65
2023-04-11T03:40:35.589Z,21.80
2023-04-11T03:41:35.556Z,21.68
2023-04-11T03:42:35.675Z,21.69
2023-04-11T03:43:35.644Z,21.80
2023-04-11T03:44:35.713Z,21.69
2023-04-11T03:45:35.652Z,21.65
2023-04-11T03:46:35.750Z,21.78
2023-04-11T03:47:35.776Z,21.78
2023-04-11T03:48:35.795Z,21.75
2023-04-11T03:49:35.772Z,21.75
2023-04-11T03:50:35.810Z,21.74
2023-04-11T03:51:35.828Z,21.80
2023-04-11T03:52:35.866Z,21.80
2023-04-11T03:53:35.928Z,21.84
2023-04-11T03:54:35.927Z,21.77
2023-04-11T03:55:36.993Z,21.74
2023-04-11T03:56:35.935Z,21.66
2023-04-11T03:57:36.005Z,21.69
2023-04-11T03:58:36.045Z,21.74
2023-04-11T03:59:36.044Z,21.75
2023-04-11T04:00:36.040Z,21.74
2023-04-11T04:01:36.167Z,21.77
2023-04-11T04:02:36.314Z,21.87
2023-04-11T04:03:36.293Z,21.80
2023-04-11T04:04:36.443Z,21.77
2023-04-11T04:05:36.189Z,21.83
2023-04-11T04:06:36.843Z,21.84
2023-04-11T04:07:36.221Z,21.83
2023-04-11T04:08:36.874Z,21.86
2023-04-11T04:09:36.314Z,21.83
2023-04-11T04:10:36.305Z,21.90
2023-04-11T04:11:36.314Z,21.84
2023-04-11T04:12:36.371Z,21.75
2023-04-11T04:13:37.393Z,21.86
2023-04-11T04:14:36.422Z,21.77
2023-04-11T04:15:37.439Z,21.72
2023-04-11T04:16:36.489Z,21.84
2023-04-11T04:17:37.402Z,21.77
2023-04-11T04:18:36.519Z,21.78
2023-04-11T04:19:36.531Z,21.87
2023-04-11T04:20:36.585Z,21.77
2023-04-11T04:21:36.549Z,21.83
2023-04-11T04:22:36.589Z,21.81
2023-04-11T04:23:36.615Z,21.83
2023-04-11T04:24:36.659Z,21.78
2023-04-11T04:25:36.695Z,21.84
2023-04-11T04:26:36.703Z,21.80
2023-04-11T04:27:36.726Z,21.84
2023-04-11T04:28:36.737Z,21.80
2023-04-11T04:29:36.872Z,21.83
2023-04-11T04:30:36.868Z,21.90
2023-04-11T04:31:36.865Z,21.92
2023-04-11T04:32:36.895Z,21.90
2023-04-11T04:33:36.944Z,21.89
2023-04-11T04:34:36.909Z,21.89
2023-04-11T04:35:36.984Z,21.90
2023-04-11T04:36:36.967Z,21.87
2023-04-11T04:37:36.955Z,21.81
2023-04-11T04:38:37.044Z,21.81
2023-04-11T04:39:37.029Z,21.89
2023-04-11T04:40:37.062Z,21.75
2023-04-11T04:41:37.295Z,21.83
2023-04-11T04:42:37.096Z,21.80
2023-04-11T04:43:37.166Z,21.86
2023-04-11T04:44:37.140Z,21.87
2023-04-11T04:45:37.205Z,21.81
2023-04-11T04:46:37.243Z,21.83
2023-04-11T04:47:37.329Z,21.81
2023-04-11T04:48:37.276Z,21.87
2023-04-11T04:49:37.278Z,21.89
2023-04-11T04:50:37.320Z,21.81
2023-04-11T04:51:37.426Z,21.80
2023-04-11T04:52:37.408Z,21.86
2023-04-11T04:53:37.555Z,21.90
2023-04-11T04:54:37.425Z,21.95
2023-04-11T04:55:37.493Z,21.83
2023-04-11T04:56:37.543Z,21.89
2023-04-11T04:57:37.541Z,22.00
2023-04-11T04:58:37.565Z,21.86
2023-04-11T04:59:37.643Z,21.83
2023-04-11T05:00:37.681Z,21.84
2023-04-11T05:01:37.711Z,22.01
2023-04-11T05:02:38.015Z,21.93
2023-04-11T05:03:37.869Z,21.89
2023-04-11T05:04:37.741Z,21.91
2023-04-11T05:05:37.763Z,21.84
2023-04-11T05:06:37.823Z,21.86
2023-04-11T05:07:37.894Z,21.95
2023-04-11T05:08:37.892Z,21.90
2023-04-11T05:09:37.860Z,21.92
2023-04-11T05:10:38.097Z,21.89
2023-04-11T05:11:37.959Z,22.03
2023-04-11T05:12:37.960Z,21.92
2023-04-11T05:13:38.457Z,21.86
2023-04-11T05:14:38.027Z,21.95
2023-04-11T05:15:38.024Z,21.86
2023-04-11T05:16:38.129Z,21.97
2023-04-11T05:17:38.128Z,21.87
2023-04-11T05:18:38.287Z,21.87
2023-04-11T05:19:38.221Z,21.93
2023-04-11T05:20:38.169Z,21.94
2023-04-11T05:21:38.288Z,21.93
2023-04-11T05:22:38.872Z,21.90
2023-04-11T05:23:38.223Z,22.01
2023-04-11T05:24:38.240Z,21.92
2023-04-11T05:25:38.264Z,22.04
2023-04-11T05:26:38.402Z,21.98
2023-04-11T05:27:38.344Z,21.92
2023-04-11T05:28:39.056Z,22.01
2023-04-11T05:29:38.910Z,21.93
2023-04-11T05:30:38.477Z,21.90
2023-04-11T05:31:38.442Z,22.01
2023-04-11T05:32:38.570Z,21.95
2023-04-11T05:33:39.449Z,21.95
2023-04-11T05:34:38.551Z,21.98
2023-04-11T05:35:38.596Z,22.56
2023-04-11T05:36:39.618Z,23.20
2023-04-11T05:37:38.690Z,24.57
